Minneapolis, Minnesota
Current Conditions -  °F | °C
As of 9:53 AM on Thursday 27 Nov 2014 (Local Time) from KMSP Reporting Station
Clear Clear  
Wind Chill: -8°   Ceiling: Unl
Heat Index:   Visibility: 10mi
Dew Point: -5°   Wind: 5mph
Humidity: 72%   Direction: 310°NW
Pressure: 30.53"   Gusts: NA
Location:  44.98°N, 93.26°W
Report Text: KMSP 271553Z 31004KT 10SM CLR M17/M21 A3053 RMK AO2 SLP359 T11671206
Loading
Personal Weather Stations






























Interactive Weather Map New forecast layout! Learn more

10-Day Weather Forecast

Advertisements
Track Severe Weather on mobile